Time;durP1;ratioP1;P1;durP2;ratioP2;P2;SDS_P1;SDS_P2;PMS_P1;PMS_P2;Temp;Humidity;BMP_temperature;BMP_pressure;BME280_temperature;BME280_humidity;BME280_pressure;Samples;Min_cycle;Max_cycle;Signal;HPM_P1;HPM_P2
2022/07/13 00:01:48;;;;;;;6.68;1.40;;;;;;;15.37;100.00;97374.13;5031908;28;20029;-68
2022/07/13 00:04:14;;;;;;;2.83;1.42;;;;;;;15.39;100.00;97369.78;5031693;28;20083;-68
2022/07/13 00:06:39;;;;;;;2.80;1.40;;;;;;;15.30;100.00;97369.31;5030739;28;20041;-68
2022/07/13 00:09:05;;;;;;;4.45;1.55;;;;;;;15.09;100.00;97373.47;5026300;28;20033;-68
2022/07/13 00:11:30;;;;;;;2.80;1.23;;;;;;;14.79;100.00;97378.31;5012084;28;20037;-67
2022/07/13 00:13:56;;;;;;;2.20;1.20;;;;;;;14.82;100.00;97374.78;5011775;28;20053;-66
2022/07/13 00:16:21;;;;;;;5.78;1.30;;;;;;;14.97;100.00;97382.03;5011810;28;20026;-66
2022/07/13 00:18:47;;;;;;;2.22;1.30;;;;;;;15.03;100.00;97369.47;5011879;28;20029;-67
2022/07/13 00:21:12;;;;;;;2.30;1.42;;;;;;;14.89;100.00;97369.34;5011837;28;20088;-68
2022/07/13 00:23:38;;;;;;;2.42;1.38;;;;;;;14.71;100.00;97371.91;5011527;28;20044;-67
2022/07/13 00:26:03;;;;;;;3.70;1.52;;;;;;;14.49;100.00;97368.88;5010224;28;20076;-67
2022/07/13 00:28:29;;;;;;;2.40;1.38;;;;;;;14.49;100.00;97362.56;5011885;28;20030;-67
2022/07/13 00:30:54;;;;;;;2.67;1.60;;;;;;;14.51;100.00;97357.47;5013526;28;20030;-67
2022/07/13 00:33:19;;;;;;;6.00;1.55;;;;;;;14.48;100.00;97361.00;5017217;28;20040;-68
2022/07/13 00:35:45;;;;;;;3.42;1.45;;;;;;;14.50;100.00;97358.66;5023285;28;20044;-68
2022/07/13 00:38:10;;;;;;;2.92;1.15;;;;;;;14.39;100.00;97358.53;5031052;28;20039;-68
2022/07/13 00:40:36;;;;;;;3.58;1.10;;;;;;;14.44;100.00;97344.44;5031165;28;20112;-67
2022/07/13 00:43:01;;;;;;;2.38;1.30;;;;;;;14.44;100.00;97349.13;5031421;28;20029;-68
2022/07/13 00:45:26;;;;;;;2.33;1.23;;;;;;;14.39;100.00;97355.78;5031267;28;20033;-67
2022/07/13 00:47:53;;;;;;;4.32;1.38;;;;;;;14.39;100.00;97352.25;5031372;28;20044;-67
2022/07/13 00:50:19;;;;;;;3.60;1.45;;;;;;;14.26;100.00;97346.16;5030047;28;20382;-67
2022/07/13 00:52:46;;;;;;;2.17;1.30;;;;;;;14.36;100.00;97336.44;5019372;28;20079;-66
2022/07/13 00:55:13;;;;;;;3.40;1.50;;;;;;;14.53;100.00;97342.16;5011302;28;20028;-67
2022/07/13 00:57:38;;;;;;;3.90;1.38;;;;;;;14.62;100.00;97347.41;5011830;28;20041;-67
2022/07/13 01:00:08;;;;;;;4.53;1.30;;;;;;;14.73;100.00;97347.53;5019231;28;20076;-67
2022/07/13 01:02:41;;;;;;;1.65;1.00;;;;;;;14.75;100.00;97345.19;5018974;28;20049;-67
2022/07/13 01:05:08;;;;;;;2.90;1.05;;;;;;;14.72;100.00;97354.19;5022876;28;20024;-67
2022/07/13 01:07:34;;;;;;;2.90;1.20;;;;;;;14.79;100.00;97354.28;5031123;28;20396;-70
2022/07/13 01:10:00;;;;;;;2.65;1.30;;;;;;;14.82;100.00;97352.72;5031116;28;20094;-68
2022/07/13 01:12:30;;;;;;;2.33;1.00;;;;;;;15.02;100.00;97345.84;5030787;28;20033;-68
2022/07/13 01:14:57;;;;;;;2.35;1.05;;;;;;;14.99;100.00;97348.56;5030081;28;20462;-68
2022/07/13 01:17:23;;;;;;;4.25;1.35;;;;;;;14.87;100.00;97350.44;5021472;28;20042;-68
2022/07/13 01:19:50;;;;;;;2.90;1.50;;;;;;;14.77;100.00;97353.06;5027133;28;20029;-68
2022/07/13 01:22:21;;;;;;;1.88;1.13;;;;;;;14.55;100.00;97355.56;5020922;28;20041;-67
2022/07/13 01:24:51;;;;;;;2.75;1.50;;;;;;;14.17;100.00;97351.97;5023824;28;20040;-68
2022/07/13 01:27:17;;;;;;;2.17;1.20;;;;;;;14.09;100.00;97362.09;5028487;28;20025;-66
2022/07/13 01:29:42;;;;;;;1.58;1.10;;;;;;;13.96;100.00;97355.25;5036483;28;20481;-68
2022/07/13 01:32:08;;;;;;;5.07;1.40;;;;;;;13.82;100.00;97357.78;5027578;28;20037;-68
2022/07/13 01:34:33;;;;;;;3.47;1.50;;;;;;;13.63;100.00;97354.00;5025504;28;20073;-68
2022/07/13 01:36:59;;;;;;;2.38;1.60;;;;;;;13.64;100.00;97354.78;5017719;28;20036;-68
2022/07/13 01:39:26;;;;;;;1.90;1.25;;;;;;;13.67;100.00;97349.34;5019315;28;20040;-68
2022/07/13 01:41:51;;;;;;;3.20;1.33;;;;;;;13.74;100.00;97354.94;5025507;28;20058;-68
2022/07/13 01:44:17;;;;;;;2.97;1.67;;;;;;;13.31;100.00;97346.03;5016019;28;20450;-68
2022/07/13 01:46:42;;;;;;;6.50;1.30;;;;;;;13.20;100.00;97345.84;5022327;28;20033;-67
2022/07/13 01:49:08;;;;;;;4.32;1.48;;;;;;;13.16;100.00;97349.69;5025514;28;20026;-67
2022/07/13 01:51:33;;;;;;;4.30;1.52;;;;;;;13.12;100.00;97351.59;5026082;28;20486;-67
2022/07/13 01:53:58;;;;;;;4.00;1.30;;;;;;;13.26;100.00;97351.03;5031793;28;20051;-67
2022/07/13 01:56:24;;;;;;;5.18;1.45;;;;;;;13.50;100.00;97356.16;5036170;28;20037;-67
2022/07/13 01:58:49;;;;;;;2.53;1.40;;;;;;;13.63;100.00;97356.75;5028524;28;20060;-67
2022/07/13 02:01:15;;;;;;;4.65;1.85;;;;;;;13.86;100.00;97351.16;5029274;28;20037;-67
2022/07/13 02:03:40;;;;;;;3.08;1.73;;;;;;;14.00;100.00;97352.53;5043134;28;20025;-67
2022/07/13 02:06:06;;;;;;;2.83;1.40;;;;;;;14.07;100.00;97360.91;5038372;28;20041;-67
2022/07/13 02:08:32;;;;;;;4.28;1.23;;;;;;;14.03;100.00;97357.31;5036726;28;20033;-67
2022/07/13 02:10:57;;;;;;;2.67;1.33;;;;;;;14.00;100.00;97361.59;5035823;28;20418;-67
2022/07/13 02:13:22;;;;;;;3.08;1.38;;;;;;;14.08;100.00;97357.78;5028505;28;20490;-67
2022/07/13 02:15:48;;;;;;;4.43;1.25;;;;;;;14.21;100.00;97357.53;5033921;28;20053;-67
2022/07/13 02:18:14;;;;;;;5.50;1.40;;;;;;;14.27;100.00;97356.03;5028217;28;20496;-67
2022/07/13 02:20:40;;;;;;;5.93;1.27;;;;;;;14.21;100.00;97358.31;5036678;28;20033;-68
2022/07/13 02:23:06;;;;;;;3.88;1.52;;;;;;;14.17;100.00;97367.69;5037212;28;20076;-67
2022/07/13 02:25:35;;;;;;;2.50;1.40;;;;;;;14.12;100.00;97361.34;5027554;28;20057;-67
2022/07/13 02:28:00;;;;;;;2.57;1.50;;;;;;;14.09;100.00;97356.59;5031639;28;20390;-67
2022/07/13 02:30:26;;;;;;;3.50;1.17;;;;;;;14.13;100.00;97356.63;5026020;28;20288;-67
2022/07/13 02:32:52;;;;;;;3.58;1.30;;;;;;;14.19;100.00;97359.84;5022216;28;20656;-67
2022/07/13 02:35:17;;;;;;;4.80;1.48;;;;;;;14.12;100.00;97353.09;5021470;28;20037;-67
2022/07/13 02:37:43;;;;;;;5.88;1.83;;;;;;;14.04;100.00;97353.38;5021778;28;20032;-67
2022/07/13 02:40:10;;;;;;;4.05;1.38;;;;;;;14.01;100.00;97343.91;5014392;28;20037;-68
2022/07/13 02:42:36;;;;;;;4.43;1.35;;;;;;;13.96;100.00;97345.00;5023647;28;20033;-68
2022/07/13 02:45:02;;;;;;;4.00;1.88;;;;;;;13.79;100.00;97348.31;5012726;28;20395;-69
2022/07/13 02:47:27;;;;;;;2.67;1.13;;;;;;;13.72;100.00;97339.94;5023556;28;20045;-68
2022/07/13 02:49:53;;;;;;;3.92;1.40;;;;;;;13.53;100.00;97341.66;5033405;28;20030;-68
2022/07/13 02:52:18;;;;;;;1.75;1.10;;;;;;;13.52;100.00;97337.31;5025704;28;20045;-68
2022/07/13 02:54:43;;;;;;;4.22;1.30;;;;;;;13.57;100.00;97331.47;5020756;28;20034;-68
2022/07/13 02:57:09;;;;;;;3.85;1.10;;;;;;;13.68;100.00;97328.88;5013028;28;20112;-68
2022/07/13 02:59:38;;;;;;;7.50;1.50;;;;;;;13.56;100.00;97321.66;5013804;28;20037;-68
2022/07/13 03:02:05;;;;;;;4.82;1.55;;;;;;;13.52;100.00;97323.56;5021532;28;20049;-68
2022/07/13 03:04:31;;;;;;;3.35;1.77;;;;;;;13.35;100.00;97322.13;5014941;28;20028;-68
2022/07/13 03:06:57;;;;;;;3.97;1.38;;;;;;;13.15;100.00;97315.88;5018780;28;20036;-68
2022/07/13 03:09:22;;;;;;;3.38;1.70;;;;;;;12.86;100.00;97309.13;5032289;28;20041;-68
2022/07/13 03:11:48;;;;;;;4.35;1.55;;;;;;;12.74;100.00;97317.56;5021348;28;20113;-67
2022/07/13 03:14:13;;;;;;;4.10;1.55;;;;;;;12.73;100.00;97313.19;5019070;28;20441;-67
2022/07/13 03:16:39;;;;;;;3.08;1.50;;;;;;;12.84;100.00;97310.63;5023266;28;20040;-67
2022/07/13 03:19:04;;;;;;;2.30;1.38;;;;;;;13.08;100.00;97314.97;5032819;28;20029;-67
2022/07/13 03:21:30;;;;;;;6.55;1.65;;;;;;;13.22;100.00;97314.41;5022547;28;20092;-67
2022/07/13 03:23:56;;;;;;;2.88;1.20;;;;;;;13.35;100.00;97311.13;5018671;28;20194;-68
2022/07/13 03:26:22;;;;;;;2.85;0.95;;;;;;;13.67;100.00;97316.31;5012507;28;20034;-68
2022/07/13 03:28:48;;;;;;;1.65;1.05;;;;;;;13.88;100.00;97312.25;5017616;28;20104;-68
2022/07/13 03:31:13;;;;;;;1.48;0.80;;;;;;;14.01;100.00;97310.03;5072414;23;20120;-67
2022/07/13 03:33:39;;;;;;;3.08;1.05;;;;;;;14.12;100.00;97311.00;5052124;28;20051;-65
2022/07/13 03:36:04;;;;;;;2.08;1.25;;;;;;;14.06;100.00;97310.53;5044065;28;20028;-66
2022/07/13 03:38:31;;;;;;;2.45;1.05;;;;;;;14.06;100.00;97306.97;5051254;28;20037;-66
2022/07/13 03:40:57;;;;;;;5.35;1.10;;;;;;;14.10;100.00;97318.84;5044754;28;20108;-66
2022/07/13 03:43:22;;;;;;;3.88;1.10;;;;;;;14.00;100.00;97313.97;5052588;28;20108;-65
2022/07/13 03:45:48;;;;;;;2.22;1.25;;;;;;;13.94;100.00;97313.50;5051015;28;20025;-64
2022/07/13 03:48:13;;;;;;;1.60;0.90;;;;;;;13.80;100.00;97314.13;5044255;28;20392;-66
2022/07/13 03:50:39;;;;;;;5.00;1.20;;;;;;;13.78;100.00;97321.97;5032550;28;20029;-66
2022/07/13 03:53:05;;;;;;;1.92;0.95;;;;;;;13.85;100.00;97324.03;5034849;28;20033;-67
2022/07/13 03:55:31;;;;;;;4.30;1.17;;;;;;;13.93;100.00;97318.22;5051931;28;20379;-66
2022/07/13 03:57:56;;;;;;;2.13;1.10;;;;;;;14.06;100.00;97321.53;5062113;28;20033;-65
2022/07/13 04:00:22;;;;;;;3.10;1.20;;;;;;;14.32;100.00;97312.41;5047261;28;20116;-65
2022/07/13 04:02:48;;;;;;;1.73;1.02;;;;;;;14.41;100.00;97314.84;5057903;28;20500;-66
2022/07/13 04:05:13;;;;;;;2.35;1.10;;;;;;;14.46;100.00;97311.78;5058051;28;20036;-67
2022/07/13 04:07:39;;;;;;;2.58;1.15;;;;;;;14.47;100.00;97307.81;5048549;28;20456;-67
2022/07/13 04:10:05;;;;;;;3.05;1.13;;;;;;;14.57;100.00;97302.81;5055550;28;20072;-66
2022/07/13 04:12:32;;;;;;;5.88;1.25;;;;;;;14.65;100.00;97301.75;5041338;28;20488;-67
2022/07/13 04:14:58;;;;;;;2.13;0.75;;;;;;;14.71;100.00;97295.50;5035979;28;20044;-67
2022/07/13 04:17:23;;;;;;;3.08;0.70;;;;;;;14.76;100.00;97294.34;5038610;28;20025;-66
2022/07/13 04:19:48;;;;;;;5.65;1.10;;;;;;;14.84;100.00;97290.50;5031875;28;20040;-65
2022/07/13 04:22:14;;;;;;;6.85;0.95;;;;;;;15.01;100.00;97286.31;5042320;28;20032;-66
2022/07/13 04:24:39;;;;;;;4.43;1.00;;;;;;;15.07;100.00;97284.78;5042398;28;20033;-66
2022/07/13 04:27:04;;;;;;;1.88;0.90;;;;;;;15.13;100.00;97281.69;5036054;28;20488;-66
2022/07/13 04:29:30;;;;;;;2.83;1.08;;;;;;;15.25;100.00;97278.59;5052547;28;20465;-66
2022/07/13 04:31:55;;;;;;;4.38;1.20;;;;;;;15.33;100.00;97271.97;5044478;28;20483;-65
2022/07/13 04:34:20;;;;;;;2.80;1.15;;;;;;;15.41;100.00;97281.06;5051806;28;20087;-67
2022/07/13 04:36:46;;;;;;;1.42;0.95;;;;;;;15.48;100.00;97287.47;5037557;28;20037;-66
2022/07/13 04:39:13;;;;;;;2.17;1.10;;;;;;;15.61;99.18;97271.38;5047692;28;20041;-66
2022/07/13 04:41:38;;;;;;;3.10;1.17;;;;;;;15.62;99.14;97277.66;5042619;28;20064;-66
2022/07/13 04:44:03;;;;;;;2.22;0.90;;;;;;;15.68;99.72;97270.59;5037135;28;20473;-66
2022/07/13 04:46:29;;;;;;;1.80;0.80;;;;;;;15.80;98.04;97267.53;5040469;28;20082;-67
2022/07/13 04:48:54;;;;;;;2.55;0.77;;;;;;;15.88;97.79;97270.31;5031554;28;20102;-67
2022/07/13 04:51:20;;;;;;;4.75;1.20;;;;;;;16.02;97.04;97267.63;5042253;28;20485;-67
2022/07/13 04:53:45;;;;;;;1.27;0.98;;;;;;;16.12;96.46;97269.66;5058442;28;20366;-67
2022/07/13 04:56:12;;;;;;;3.15;1.30;;;;;;;16.25;96.16;97270.06;5062547;28;20543;-67
2022/07/13 04:58:37;;;;;;;3.10;0.90;;;;;;;16.41;94.62;97266.97;5041429;28;20029;-67
2022/07/13 05:01:06;;;;;;;3.65;1.13;;;;;;;17.26;89.00;97270.22;5038917;28;20405;-66
2022/07/13 05:03:32;;;;;;;1.92;0.82;;;;;;;18.40;82.86;97282.97;5039531;28;20091;-66
2022/07/13 05:05:58;;;;;;;1.77;0.90;;;;;;;19.14;78.70;97276.53;5031041;28;20482;-67
2022/07/13 05:08:23;;;;;;;3.20;0.75;;;;;;;19.40;75.83;97273.13;5031302;28;20045;-67
2022/07/13 05:10:49;;;;;;;2.38;0.90;;;;;;;19.22;77.27;97270.50;5033408;28;20033;-68
2022/07/13 05:13:14;;;;;;;1.48;0.77;;;;;;;19.82;74.96;97267.56;5039392;28;20029;-67
2022/07/13 05:15:40;;;;;;;2.17;0.70;;;;;;;19.31;76.96;97261.72;5044982;28;20512;-68
2022/07/13 05:18:05;;;;;;;4.55;1.17;;;;;;;19.52;76.74;97257.13;5055109;28;20045;-69
2022/07/13 05:20:31;;;;;;;1.95;0.80;;;;;;;20.11;73.77;97253.31;5058906;28;20040;-68
2022/07/13 05:22:57;;;;;;;2.85;0.75;;;;;;;19.59;74.48;97260.66;5049262;28;20037;-70
2022/07/13 05:25:22;;;;;;;3.28;1.00;;;;;;;19.74;73.51;97261.31;5053046;28;20033;-70
2022/07/13 05:27:47;;;;;;;1.38;0.95;;;;;;;19.90;73.57;97269.06;5033225;28;20207;-68
2022/07/13 05:30:13;;;;;;;2.53;1.10;;;;;;;21.65;65.58;97264.13;5035675;28;20029;-68
2022/07/13 05:32:38;;;;;;;1.58;1.00;;;;;;;20.50;69.27;97263.16;5041450;28;20025;-69
2022/07/13 05:35:04;;;;;;;1.80;0.95;;;;;;;21.63;64.76;97264.56;5049922;28;20036;-68
2022/07/13 05:37:29;;;;;;;1.88;0.80;;;;;;;22.38;63.69;97265.06;5036880;28;20041;-68
2022/07/13 05:39:55;;;;;;;1.83;0.98;;;;;;;22.88;60.52;97263.94;5035515;28;20405;-68
2022/07/13 05:42:20;;;;;;;1.35;0.60;;;;;;;21.82;60.84;97256.63;5036058;28;20041;-67
2022/07/13 05:44:46;;;;;;;3.15;0.80;;;;;;;22.57;58.87;97252.28;5042245;28;20150;-67
2022/07/13 05:47:12;;;;;;;6.53;0.90;;;;;;;23.25;58.27;97255.50;5037866;28;20040;-69
2022/07/13 05:49:38;;;;;;;3.22;0.80;;;;;;;23.24;55.79;97256.72;5045282;28;20049;-69
2022/07/13 05:52:03;;;;;;;3.67;0.82;;;;;;;26.69;45.70;97255.00;5035441;28;20043;-71
2022/07/13 05:54:30;;;;;;;1.30;0.70;;;;;;;23.29;49.93;97261.78;5046928;28;20136;-68
2022/07/13 05:56:56;;;;;;;4.90;1.02;;;;;;;23.43;50.80;97257.84;5041974;28;20036;-70
2022/07/13 05:59:21;;;;;;;3.45;1.08;;;;;;;22.91;53.52;97259.50;5028221;28;20047;-69
2022/07/13 06:01:47;;;;;;;2.80;1.10;;;;;;;23.53;49.46;97245.56;5022138;28;20124;-69
2022/07/13 06:04:12;;;;;;;2.28;0.80;;;;;;;23.41;50.82;97261.06;5024870;28;20128;-70
2022/07/13 06:06:37;;;;;;;7.90;1.10;;;;;;;24.05;49.18;97254.97;5036765;28;20388;-69
2022/07/13 06:09:03;;;;;;;1.45;0.60;;;;;;;25.05;46.60;97253.97;5044784;28;20049;-70
2022/07/13 06:11:29;;;;;;;1.20;0.63;;;;;;;23.72;49.75;97254.28;5041901;28;20033;-69
2022/07/13 06:13:54;;;;;;;1.75;0.93;;;;;;;23.02;52.81;97253.66;5045031;28;20049;-69
2022/07/13 06:16:19;;;;;;;2.38;0.90;;;;;;;22.54;53.68;97253.16;5038313;28;20040;-69
2022/07/13 06:18:45;;;;;;;3.47;0.88;;;;;;;22.70;53.09;97252.41;5028500;28;20513;-70
2022/07/13 06:21:10;;;;;;;1.92;0.98;;;;;;;23.52;50.10;97249.63;5032582;28;20137;-69
2022/07/13 06:23:36;;;;;;;4.10;1.15;;;;;;;24.85;46.69;97243.00;5033096;28;20049;-68
2022/07/13 06:26:01;;;;;;;1.60;0.82;;;;;;;23.73;49.33;97242.63;5027769;28;20616;-69
2022/07/13 06:28:26;;;;;;;2.55;1.00;;;;;;;22.13;53.58;97234.91;5020088;28;20045;-70
2022/07/13 06:30:52;;;;;;;1.98;1.00;;;;;;;21.54;55.46;97233.66;5024050;28;20493;-69
2022/07/13 06:33:17;;;;;;;6.13;0.90;;;;;;;22.89;52.77;97226.41;5022018;28;20041;-70
2022/07/13 06:35:42;;;;;;;2.83;0.77;;;;;;;22.48;51.34;97238.16;5037416;28;20041;-70
2022/07/13 06:38:08;;;;;;;3.38;1.13;;;;;;;22.23;52.41;97233.84;5036439;28;20045;-69
2022/07/13 06:40:34;;;;;;;1.55;0.80;;;;;;;22.11;52.90;97243.69;5050686;28;20059;-69
2022/07/13 06:42:59;;;;;;;3.97;0.70;;;;;;;22.97;50.76;97252.16;5065057;28;20049;-69
2022/07/13 06:45:25;;;;;;;2.65;0.90;;;;;;;23.25;51.22;97252.72;5040780;28;20052;-72
2022/07/13 06:47:51;;;;;;;3.60;0.80;;;;;;;23.80;47.40;97259.25;5051967;28;20037;-68
2022/07/13 06:50:18;;;;;;;2.97;1.10;;;;;;;23.50;50.08;97262.44;5029983;28;20050;-69
2022/07/13 06:52:44;;;;;;;2.50;0.80;;;;;;;24.37;47.14;97261.66;5032945;28;20033;-70
2022/07/13 06:55:11;;;;;;;2.55;1.05;;;;;;;23.50;46.83;97254.88;5031858;28;20049;-70
2022/07/13 06:57:37;;;;;;;1.52;0.90;;;;;;;23.19;48.65;97255.25;5024705;28;20045;-68
2022/07/13 07:00:04;;;;;;;1.75;0.90;;;;;;;24.37;47.88;97254.03;5030811;28;20152;-71
2022/07/13 07:02:30;;;;;;;3.90;0.95;;;;;;;23.09;49.86;97257.06;5032168;28;20120;-68
2022/07/13 07:04:55;;;;;;;1.25;0.85;;;;;;;23.43;49.37;97261.41;5024435;28;20128;-70
2022/07/13 07:07:21;;;;;;;1.92;0.70;;;;;;;23.88;47.14;97256.25;5037606;28;20055;-69
2022/07/13 07:09:47;;;;;;;4.47;1.10;;;;;;;23.66;48.01;97263.22;5058683;28;20045;-70
2022/07/13 07:12:12;;;;;;;3.35;0.80;;;;;;;24.03;47.79;97263.03;5039339;28;20033;-70
2022/07/13 07:14:38;;;;;;;5.20;1.30;;;;;;;24.61;44.17;97262.97;5042715;28;20123;-70
2022/07/13 07:17:04;;;;;;;3.13;1.00;;;;;;;24.16;45.67;97254.66;5039633;28;20033;-71
2022/07/13 07:19:29;;;;;;;3.75;0.80;;;;;;;23.59;48.22;97252.22;5042039;28;20447;-70
2022/07/13 07:21:55;;;;;;;1.35;0.80;;;;;;;24.98;46.14;97249.38;5043175;28;20114;-69
2022/07/13 07:24:21;;;;;;;2.78;0.75;;;;;;;24.51;45.00;97258.44;5039300;28;20032;-69
2022/07/13 07:26:47;;;;;;;3.05;0.75;;;;;;;24.10;46.42;97253.66;5042124;28;20413;-70
2022/07/13 07:29:13;;;;;;;3.30;1.02;;;;;;;23.56;48.58;97269.09;5038632;28;20108;-70
2022/07/13 07:31:38;;;;;;;1.75;0.90;;;;;;;23.54;48.54;97261.13;5043080;28;20052;-70
2022/07/13 07:34:04;;;;;;;1.20;0.80;;;;;;;24.01;46.67;97254.31;5039492;28;20128;-71
2022/07/13 07:36:29;;;;;;;2.78;0.93;;;;;;;24.17;47.32;97257.03;5042113;28;20132;-69
2022/07/13 07:38:55;;;;;;;2.28;1.00;;;;;;;24.14;46.86;97260.72;5044115;28;20445;-69
2022/07/13 07:41:20;;;;;;;4.00;0.80;;;;;;;24.16;46.95;97261.03;5038522;28;20052;-69
2022/07/13 07:43:46;;;;;;;2.33;0.85;;;;;;;24.76;45.73;97256.91;5041799;28;20041;-69
2022/07/13 07:46:12;;;;;;;4.13;1.00;;;;;;;24.55;46.81;97258.34;5038566;28;20555;-68
2022/07/13 07:48:37;;;;;;;3.20;1.00;;;;;;;24.65;46.29;97250.84;5059096;28;20064;-68
2022/07/13 07:51:04;;;;;;;1.17;0.70;;;;;;;24.54;47.81;97251.97;5041367;28;20468;-70
2022/07/13 07:53:30;;;;;;;1.08;0.70;;;;;;;25.30;43.49;97249.56;5043503;28;20041;-69
2022/07/13 07:55:56;;;;;;;5.15;0.60;;;;;;;25.26;44.46;97249.69;5044630;28;20040;-69
2022/07/13 07:58:21;;;;;;;1.55;0.90;;;;;;;24.85;46.17;97247.81;5038734;28;20059;-70
2022/07/13 08:00:46;;;;;;;4.35;1.00;;;;;;;25.00;46.00;97249.72;5042345;28;20044;-70
2022/07/13 08:03:12;;;;;;;2.90;0.90;;;;;;;25.16;44.12;97243.19;5038177;28;20049;-70
2022/07/13 08:05:38;;;;;;;1.40;0.93;;;;;;;25.50;44.51;97240.91;5046065;28;20040;-70
2022/07/13 08:08:04;;;;;;;2.97;0.73;;;;;;;26.14;42.33;97240.63;5045560;28;20064;-71
2022/07/13 08:10:30;;;;;;;1.98;0.80;;;;;;;26.11;39.97;97239.53;5046032;28;20044;-69
2022/07/13 08:12:58;;;;;;;1.48;0.70;;;;;;;27.46;38.34;97242.28;5043137;28;20102;-70
2022/07/13 08:15:24;;;;;;;2.60;0.90;;;;;;;28.13;35.58;97246.19;5037722;28;20931;-70
2022/07/13 08:17:49;;;;;;;1.90;0.90;;;;;;;26.68;40.41;97247.03;5044824;28;20056;-69
2022/07/13 08:20:14;;;;;;;2.00;0.90;;;;;;;26.52;40.80;97245.19;5038030;28;20033;-70
2022/07/13 08:22:40;;;;;;;2.00;0.93;;;;;;;26.85;39.09;97248.34;5040813;28;20060;-69
2022/07/13 08:25:05;;;;;;;4.10;0.80;;;;;;;26.02;41.18;97241.47;5037921;28;20060;-69
2022/07/13 08:27:32;;;;;;;2.58;0.80;;;;;;;25.48;39.60;97235.75;5040490;28;20045;-69
2022/07/13 08:29:58;;;;;;;2.03;0.80;;;;;;;26.98;38.65;97241.84;5042127;28;20115;-69
2022/07/13 08:32:24;;;;;;;3.17;0.80;;;;;;;27.13;37.91;97239.22;5037158;28;20493;-68
2022/07/13 08:40:21;;;;;;;1.33;0.90;;;;;;;26.58;39.89;97236.97;5037530;28;20037;-69
2022/07/13 08:42:47;;;;;;;1.42;0.82;;;;;;;26.60;38.94;97235.25;5042559;28;20056;-69
2022/07/13 08:45:13;;;;;;;4.32;0.95;;;;;;;26.87;38.61;97239.47;5036805;28;20036;-69
2022/07/13 08:47:41;;;;;;;2.50;0.60;;;;;;;27.15;37.52;97233.91;5043048;28;20382;-69
2022/07/13 08:50:08;;;;;;;2.70;0.70;;;;;;;26.28;37.77;97233.69;5042570;28;20053;-69
2022/07/13 08:52:35;;;;;;;1.95;0.82;;;;;;;26.53;38.51;97238.34;5045375;28;20414;-69
2022/07/13 08:55:03;;;;;;;1.40;0.80;;;;;;;26.92;37.96;97241.66;5046232;28;20047;-69
2022/07/13 08:57:31;;;;;;;1.73;0.63;;;;;;;26.61;38.08;97244.50;5043735;28;20047;-69
2022/07/13 08:59:56;;;;;;;6.03;0.90;;;;;;;26.08;38.42;97232.03;5042992;28;20131;-69
2022/07/13 09:02:21;;;;;;;1.15;0.80;;;;;;;26.35;38.64;97243.88;5042521;28;20341;-69
2022/07/13 09:04:47;;;;;;;2.10;0.85;;;;;;;25.72;38.87;97233.28;5052724;28;20063;-69
2022/07/13 09:07:12;;;;;;;3.83;1.00;;;;;;;26.96;37.62;97242.31;5049420;28;20045;-69
2022/07/13 09:09:39;;;;;;;2.80;0.80;;;;;;;27.81;38.90;97239.16;5058654;28;20037;-69
2022/07/13 09:12:16;;;;;;;1.83;1.00;;;;;;;28.33;38.44;97242.09;5051777;28;20048;-71
2022/07/13 09:14:44;;;;;;;3.42;0.85;;;;;;;28.96;37.89;97237.50;5046485;28;20049;-69
2022/07/13 09:17:26;;;;;;;2.78;1.08;;;;;;;29.39;37.47;97236.63;5035896;28;20044;-69
2022/07/13 09:19:52;;;;;;;4.68;0.88;;;;;;;29.36;37.56;97233.50;5041296;28;20033;-69
2022/07/13 09:22:17;;;;;;;3.65;1.45;;;;;;;29.51;37.69;97236.41;5035499;28;20094;-69
2022/07/13 09:24:47;;;;;;;2.47;1.15;;;;;;;29.56;35.19;97229.31;5043242;28;20091;-69
2022/07/13 09:27:16;;;;;;;3.97;0.77;;;;;;;29.76;35.93;97240.00;5037090;28;20480;-68
2022/07/13 09:29:42;;;;;;;3.65;1.17;;;;;;;29.76;36.66;97242.03;5041759;28;20290;-69
2022/07/13 09:32:11;;;;;;;4.78;0.80;;;;;;;30.14;34.57;97237.63;5051112;28;20049;-69
2022/07/13 09:34:52;;;;;;;4.05;0.77;;;;;;;29.45;34.99;97237.56;5049121;28;20454;-69
2022/07/13 09:37:20;;;;;;;2.40;0.93;;;;;;;29.95;32.87;97239.84;5036677;28;20037;-69
2022/07/13 09:39:56;;;;;;;2.88;0.90;;;;;;;30.22;33.98;97238.81;5044487;28;20041;-69
2022/07/13 09:42:29;;;;;;;2.80;0.77;;;;;;;30.44;34.43;97242.03;5041056;28;20072;-69
2022/07/13 09:47:53;;;;;;;3.50;0.95;;;;;;;30.41;33.46;97239.41;5044687;28;20401;-69
2022/07/13 09:50:23;;;;;;;1.25;0.90;;;;;;;30.64;34.52;97238.50;5040595;28;20575;-69
2022/07/13 09:52:51;;;;;;;3.00;1.23;;;;;;;30.64;34.51;97237.72;5059958;28;20057;-68
2022/07/13 09:55:22;;;;;;;1.98;0.98;;;;;;;30.59;34.48;97239.19;5039681;28;20045;-68
2022/07/13 09:57:59;;;;;;;2.53;0.90;;;;;;;30.79;34.28;97244.16;5045338;28;20087;-68
2022/07/13 10:00:27;;;;;;;2.28;0.80;;;;;;;31.02;33.21;97245.28;5039357;28;20049;-68
2022/07/13 10:02:53;;;;;;;0.80;0.60;;;;;;;31.35;30.33;97246.25;5044822;28;20068;-68
2022/07/13 10:05:19;;;;;;;2.70;0.60;;;;;;;31.33;28.85;97243.13;5039935;28;20071;-69
2022/07/13 10:07:47;;;;;;;3.25;0.93;;;;;;;31.07;28.92;97241.00;5043046;28;20059;-68
2022/07/13 10:10:14;;;;;;;1.75;0.70;;;;;;;29.89;33.77;97234.88;5037109;28;20041;-68
2022/07/13 10:12:41;;;;;;;2.80;1.00;;;;;;;28.29;38.06;97239.44;5043472;28;20513;-68
2022/07/13 10:15:07;;;;;;;3.45;0.70;;;;;;;29.01;37.12;97229.63;5033153;28;20053;-69
2022/07/13 10:17:34;;;;;;;1.45;0.60;;;;;;;29.70;37.21;97230.63;5028366;28;20041;-69
2022/07/13 10:20:10;;;;;;;2.25;0.93;;;;;;;30.02;35.44;97228.19;5036697;28;20040;-69
2022/07/13 10:22:40;;;;;;;2.42;0.80;;;;;;;29.69;36.79;97227.03;5040255;28;20600;-67
2022/07/13 10:25:06;;;;;;;2.05;0.82;;;;;;;29.60;38.44;97229.13;5020862;28;20494;-69
2022/07/13 10:27:33;;;;;;;2.88;1.33;;;;;;;29.70;38.41;97230.63;5035524;28;20401;-68
2022/07/13 10:30:10;;;;;;;8.00;2.30;;;;;;;29.40;39.03;97226.91;5039202;28;20543;-70
2022/07/13 10:32:41;;;;;;;6.10;1.67;;;;;;;29.15;40.24;97235.41;5041968;28;20371;-71
2022/07/13 10:35:11;;;;;;;7.15;1.80;;;;;;;28.53;40.48;97238.75;5031421;28;20044;-69
2022/07/13 10:37:55;;;;;;;2.85;1.02;;;;;;;28.98;40.09;97234.19;5024977;28;20045;-68
2022/07/13 10:40:21;;;;;;;1.50;0.88;;;;;;;29.05;37.93;97231.03;5019912;28;20405;-69
2022/07/13 10:42:53;;;;;;;2.42;1.10;;;;;;;28.70;39.51;97228.69;5025553;28;20064;-71
2022/07/13 10:47:59;;;;;;;4.78;1.00;;;;;;;29.27;38.62;97218.72;5026571;28;20052;-69
2022/07/13 10:50:36;;;;;;;2.42;1.27;;;;;;;29.29;38.67;97221.81;5035970;28;20124;-68
2022/07/13 10:53:02;;;;;;;3.70;1.20;;;;;;;29.19;39.31;97215.47;5041124;28;20048;-72
2022/07/13 10:55:30;;;;;;;2.95;1.15;;;;;;;29.18;39.46;97211.09;5040188;28;20045;-70
2022/07/13 10:57:55;;;;;;;3.70;1.25;;;;;;;29.28;39.16;97209.75;5043710;28;20087;-69
2022/07/13 11:00:37;;;;;;;5.35;1.95;;;;;;;29.35;38.42;97211.44;5039080;28;20056;-69
2022/07/13 11:03:06;;;;;;;4.15;1.05;;;;;;;29.15;38.45;97214.84;5040799;28;20047;-70
2022/07/13 11:05:35;;;;;;;6.43;1.70;;;;;;;29.03;39.81;97222.28;5044353;28;20037;-69
2022/07/13 11:08:16;;;;;;;2.78;1.77;;;;;;;29.13;40.36;97204.00;5048575;28;20037;-70
2022/07/13 11:11:14;;;;;;;5.07;1.50;;;;;;;29.43;38.32;97211.84;5046965;28;20045;-69
2022/07/13 11:13:44;;;;;;;2.20;1.00;;;;;;;28.87;39.68;97205.75;5043579;28;20073;-68
2022/07/13 11:16:10;;;;;;;;;;;;;;;29.14;39.40;97205.63;5039868;28;20048;-67
2022/07/13 11:18:37;;;;;;;2.35;1.45;;;;;;;29.26;38.39;97198.19;5044120;28;19967;-70
2022/07/13 11:21:13;;;;;;;3.72;0.90;;;;;;;29.23;37.10;97199.16;5041664;28;20040;-66
2022/07/13 11:26:52;;;;;;;5.68;1.13;;;;;;;28.52;38.91;97201.34;5043389;28;20497;-69
2022/07/13 11:29:35;;;;;;;3.58;1.35;;;;;;;28.88;38.79;97198.84;5038549;28;20132;-70
2022/07/13 11:32:02;;;;;;;2.67;0.70;;;;;;;29.66;37.66;97201.81;5051646;28;20045;-69
2022/07/13 11:34:29;;;;;;;1.40;0.65;;;;;;;29.64;36.36;97202.28;5047322;28;20041;-67
2022/07/13 11:36:57;;;;;;;2.47;1.00;;;;;;;29.66;36.61;97196.94;5050275;28;20140;-67
2022/07/13 11:39:30;;;;;;;3.33;1.27;;;;;;;29.73;35.80;97199.38;5039261;28;20060;-67
2022/07/13 11:41:57;;;;;;;4.15;1.33;;;;;;;29.65;36.37;97203.81;5043100;28;20132;-68